AirNav   TITAN Aviation Fuels
 
 1035 users online  

5S9 Valley View Airport
Estacada, Oregon, USA

GOING TO ESTACADA?


FAA INFORMATION EFFECTIVE 26 JANUARY 2023

Location

FAA Identifier: 5S9
Lat/Long: 45-18-29.4350N 122-19-07.3070W
45-18.490583N 122-19.121783W
45.3081764,-122.3186964
(estimated)
Elevation: 735 ft. / 224 m (estimated)
Variation: 19E (1985)
From city: 1 mile NE of ESTACADA, OR
Time zone: UTC -8 (UTC -7 during Daylight Saving Time)
Zip code: 97023

Airport Operations

Airport use: Open to the public
Activation date: 03/1975
Control tower: no
ARTCC: SEATTLE CENTER
FSS: MC MINNVILLE FLIGHT SERVICE STATION
NOTAMs facility: MMV (NOTAM-D service available)
Attendance: IREG
Pattern altitude: 1685 ft. MSL
Wind indicator: yes
Segmented circle: no

Airport Communications

CTAF: 122.9
WX ASOS at TTD (15 nm N): 135.625 (503-492-2887)
WX ASOS at UAO (19 nm W): PHONE 503-678-3011

Nearby radio navigation aids

VOR radial/distance  VOR name  Freq  Var
UBGr075/27.9NEWBERG VOR/DME117.4021E
BTGr136/28.8BATTLE GROUND VORTAC116.6021E

 
NDB name  Hdg/Dist  Freq  Var  ID
BANKS106/36.235616EPND .--. -. -..

Airport Services

Parking: tiedowns
Bottled oxygen: NONE
Bulk oxygen: NONE

Runway Information

Runway 16/34

Dimensions: 3780 x 32 ft. / 1152 x 10 m
Surface: asphalt, in good condition
RUNWAY 16  RUNWAY 34
Traffic pattern: leftleft
Displaced threshold: 490 ft.no
Markings: numbers only, in good conditionnumbers only, in good condition
Obstructions: 70 ft. trees, 201 ft. from runway
RWY 16 75 FT TREES AT 10-200 FT FM RWY END, 60-100 FT LEFT & RIGHT OF CNTRLN. PVT RD ACES THE ARPT THRU SAFTEY AREA AND RPZ.
70 ft. trees, 201 ft. from runway, 125 ft. left and right of centerline
40-60 FT TREES AT 150-200 FT FM RWY END AND 75-85 FT LEFT OF CNTRLN.

Airport Ownership and Management from official FAA records

Ownership: Privately-owned
Owner: 5 SIERRA 9, LLC - MICHAEL CZYZ
4136 S. LAKE PARK AVENUE
CHICAGO, IL 60653
Phone 312-953-9055
Manager: MICHAEL CZYZ
4136 S. LAKE PARK AVENUE
CHICAGO, IL 60653
Phone 312-953-9055

Airport Operational Statistics

Aircraft based on the field: 33
Single engine airplanes: 28
Multi engine airplanes: 4
Helicopters: 1
    
Aircraft operations: avg 57/week *
62% transient general aviation
38% local general aviation
* for 12-month period ending 08 March 2021

Additional Remarks

FOR CD CTC PORTLAND APCH AT 503-493-7545.
15-45 FT TREES AT 20 FT E OF RWY FULL LEN.

Instrument Procedures

There are no published instrument procedures at 5S9.

Some nearby airports with instrument procedures:

KTTD - Portland-Troutdale Airport (15 nm N)
KUAO - Aurora State Airport (19 nm W)
KPDX - Portland International Airport (21 nm NW)
KVUO - Pearson Field Airport (24 nm NW)
KHIO - Portland-Hillsboro Airport (30 nm NW)
 
Loc | Ops | Rwys | IFR | FBO | Links
Com | Nav | Svcs | Stats | Notes
Area around 5S9 (Valley View Airport)
 
Road maps at: MapQuest Bing Google
 
Aerial photo
WARNING: Photo may not be current or correct
Aerial photo of 5S9 (Valley View Airport)
Taken in October 2010
from ~500ft AGL from the south end, facing north.

Do you have a better or more recent aerial photo of Valley View Airport that you would like to share? If so, please send us your photo.

 
Sectional chart

 
Airport distance calculator
Flying to Valley View Airport? Find the distance to fly.

From to 5S9

Sunrise and sunset
Times for 28-Jan-2023
 Local
(UTC-8)
 Zulu
(UTC)
Morning civil twilight07:0315:03
Sunrise07:3515:35
Sunset17:0901:09
Evening civil twilight17:4101:41

Current date and time
Zulu (UTC)  29-Jan-2023 01:47:38
Local (UTC-8)  28-Jan-2023 17:47:38
 
METAR
KTTD 
15nm N 
290053Z 09014KT 10SM -RA BKN037 OVC050 04/02 A3008 RMK AO2 RAB29 SLP185 P0000 T00440017
KUAO 
19nm W 
290122Z 08003KT 9SM -RA BKN016 BKN028 OVC035 06/05 A3005 RMK AO2 P0001 T00610050
KPDX 
20nm NW 
290111Z 11014KT 10SM -RA FEW017 BKN033 OVC050 06/01 A3007 RMK AO2 P0001 T00560011
KVUO 
23nm NW 
290053Z AUTO 10011G18KT 7SM -RA FEW015 FEW022 OVC030 06/02 A3008 RMK AO2 RAB28 SLP187 P0002 T00560017
TAF
KTTD 
15nm N 
281744Z 2818/2918 VRB03KT P6SM SCT009 OVC025 FM282100 08008KT P6SM OVC022 FM290000 08014KT P6SM -RA OVC030 FM290200 09015G25KT P6SM -SNRA SCT025 OVC040 FM290400 08015G25KT P6SM BKN090 FM291500 09011KT P6SM SKC
KUAO 
19nm W 
281744Z 2818/2918 VRB04KT 3SM BR BKN005 OVC015 FM282100 03008KT P6SM SCT015 BKN040 FM290000 03014KT P6SM -RA OVC015 FM290200 03015KT P6SM -RASN SCT025 OVC040 FM290500 03015G25KT P6SM BKN090 FM291200 03008KT P6SM SKC
NOTAMs
Click for the latest NOTAMs
NOTAMs are issued by the DoD/FAA and will open in a separate window not controlled by AirNav.

 

 
 

Would you like to see your business listed on this page?

 If your business provides an interesting product or service to pilots, flight crews, aircraft, or users of the Valley View Airport, you should consider listing it here.  To start the listing process, click on the button below
 
Add a business
 

Other Pages about Valley View Airport

Update a link
 
Copyright © AirNav, LLC. All rights reserved. Privacy Policy  Contact